sensor_id;sensor_type;location;lat;lon;timestamp;pressure;altitude;pressure_sealevel;temperature;humidity
82379;BME280;72008;48.140;11.614;2023-09-12T00:00:11;95213.13;;;22.75;59.52
82379;BME280;72008;48.140;11.614;2023-09-12T00:01:12;95226.34;;;22.70;59.09
82379;BME280;72008;48.140;11.614;2023-09-12T00:02:12;95223.56;;;22.70;59.39
82379;BME280;72008;48.140;11.614;2023-09-12T00:03:13;95218.84;;;22.67;59.03
82379;BME280;72008;48.140;11.614;2023-09-12T00:04:13;95223.19;;;22.68;59.94
82379;BME280;72008;48.140;11.614;2023-09-12T00:05:13;95225.50;;;22.74;60.09
82379;BME280;72008;48.140;11.614;2023-09-12T00:06:14;95217.28;;;22.66;59.46
82379;BME280;72008;48.140;11.614;2023-09-12T00:07:14;95222.41;;;22.68;59.88
82379;BME280;72008;48.140;11.614;2023-09-12T00:08:14;95220.91;;;22.63;59.89
82379;BME280;72008;48.140;11.614;2023-09-12T00:09:15;95221.25;;;22.65;59.93
82379;BME280;72008;48.140;11.614;2023-09-12T00:10:15;95224.56;;;22.60;59.50
82379;BME280;72008;48.140;11.614;2023-09-12T00:11:16;95215.03;;;22.58;58.99
82379;BME280;72008;48.140;11.614;2023-09-12T00:12:16;95215.41;;;22.60;59.57
82379;BME280;72008;48.140;11.614;2023-09-12T00:13:17;95219.78;;;22.61;59.46
82379;BME280;72008;48.140;11.614;2023-09-12T00:14:18;95212.56;;;22.63;58.45
82379;BME280;72008;48.140;11.614;2023-09-12T00:15:18;95211.81;;;22.59;58.52
82379;BME280;72008;48.140;11.614;2023-09-12T00:16:19;95209.53;;;22.54;58.56
82379;BME280;72008;48.140;11.614;2023-09-12T00:17:19;95210.31;;;22.55;58.47
82379;BME280;72008;48.140;11.614;2023-09-12T00:18:19;95202.44;;;22.49;58.91
82379;BME280;72008;48.140;11.614;2023-09-12T00:19:20;95208.03;;;22.49;59.75
82379;BME280;72008;48.140;11.614;2023-09-12T00:20:20;95205.59;;;22.52;59.78
82379;BME280;72008;48.140;11.614;2023-09-12T00:21:21;95199.72;;;22.46;59.72
82379;BME280;72008;48.140;11.614;2023-09-12T00:22:21;95204.88;;;22.47;59.61
82379;BME280;72008;48.140;11.614;2023-09-12T00:23:22;95204.09;;;22.47;59.62
82379;BME280;72008;48.140;11.614;2023-09-12T00:24:22;95202.06;;;22.47;59.23
82379;BME280;72008;48.140;11.614;2023-09-12T00:25:22;95204.88;;;22.47;59.72
82379;BME280;72008;48.140;11.614;2023-09-12T00:26:23;95205.69;;;22.48;58.95
82379;BME280;72008;48.140;11.614;2023-09-12T00:27:23;95208.09;;;22.46;59.77
82379;BME280;72008;48.140;11.614;2023-09-12T00:28:24;95202.16;;;22.44;59.46
82379;BME280;72008;48.140;11.614;2023-09-12T00:29:24;95202.50;;;22.46;60.29
82379;BME280;72008;48.140;11.614;2023-09-12T00:30:25;95199.50;;;22.37;60.74
82379;BME280;72008;48.140;11.614;2023-09-12T00:31:25;95197.56;;;22.34;59.83
82379;BME280;72008;48.140;11.614;2023-09-12T00:32:26;95198.78;;;22.33;59.49
82379;BME280;72008;48.140;11.614;2023-09-12T00:33:26;95203.56;;;22.32;59.42
82379;BME280;72008;48.140;11.614;2023-09-12T00:34:26;95194.81;;;22.30;60.78
82379;BME280;72008;48.140;11.614;2023-09-12T00:35:27;95197.28;;;22.28;59.70
82379;BME280;72008;48.140;11.614;2023-09-12T00:36:27;95193.34;;;22.25;59.02
82379;BME280;72008;48.140;11.614;2023-09-12T00:37:27;95193.03;;;22.20;60.38
82379;BME280;72008;48.140;11.614;2023-09-12T00:38:28;95200.47;;;22.26;59.50
82379;BME280;72008;48.140;11.614;2023-09-12T00:39:28;95194.13;;;22.26;59.06
82379;BME280;72008;48.140;11.614;2023-09-12T00:40:29;95190.47;;;22.29;59.69
82379;BME280;72008;48.140;11.614;2023-09-12T00:41:29;95183.81;;;22.23;60.11
82379;BME280;72008;48.140;11.614;2023-09-12T00:42:30;95190.19;;;22.23;59.28
82379;BME280;72008;48.140;11.614;2023-09-12T00:43:30;95184.59;;;22.23;59.46
82379;BME280;72008;48.140;11.614;2023-09-12T00:44:30;95194.59;;;22.21;59.33
82379;BME280;72008;48.140;11.614;2023-09-12T00:45:31;95193.41;;;22.22;59.38
82379;BME280;72008;48.140;11.614;2023-09-12T00:46:32;95190.69;;;22.18;59.32
82379;BME280;72008;48.140;11.614;2023-09-12T00:47:33;95188.69;;;22.15;60.24
82379;BME280;72008;48.140;11.614;2023-09-12T00:48:37;95177.94;;;22.17;60.03
82379;BME280;72008;48.140;11.614;2023-09-12T00:49:39;95185.44;;;22.20;59.28
82379;BME280;72008;48.140;11.614;2023-09-12T00:50:41;95188.84;;;22.08;59.58
82379;BME280;72008;48.140;11.614;2023-09-12T00:51:45;95187.97;;;22.11;60.61
82379;BME280;72008;48.140;11.614;2023-09-12T00:52:47;95181.19;;;22.12;59.86
82379;BME280;72008;48.140;11.614;2023-09-12T00:53:48;95182.00;;;22.13;59.62
82379;BME280;72008;48.140;11.614;2023-09-12T00:54:49;95171.63;;;22.13;59.85
82379;BME280;72008;48.140;11.614;2023-09-12T00:55:57;95189.13;;;22.14;59.57
82379;BME280;72008;48.140;11.614;2023-09-12T00:56:58;95182.03;;;22.09;60.11
82379;BME280;72008;48.140;11.614;2023-09-12T00:58:01;95179.69;;;22.08;59.50
82379;BME280;72008;48.140;11.614;2023-09-12T00:59:02;95180.06;;;22.10;59.57
82379;BME280;72008;48.140;11.614;2023-09-12T01:00:05;95180.94;;;22.03;59.66
82379;BME280;72008;48.140;11.614;2023-09-12T01:01:06;95180.25;;;21.99;59.75
82379;BME280;72008;48.140;11.614;2023-09-12T01:02:07;95176.38;;;21.93;59.59
82379;BME280;72008;48.140;11.614;2023-09-12T01:03:07;95177.59;;;21.92;59.34
82379;BME280;72008;48.140;11.614;2023-09-12T01:04:09;95176.91;;;21.84;60.06
82379;BME280;72008;48.140;11.614;2023-09-12T01:05:12;95187.56;;;21.89;59.62
82379;BME280;72008;48.140;11.614;2023-09-12T01:06:16;95185.13;;;21.91;60.18
82379;BME280;72008;48.140;11.614;2023-09-12T01:07:19;95180.00;;;21.90;59.56
82379;BME280;72008;48.140;11.614;2023-09-12T01:08:20;95175.63;;;21.89;59.58
82379;BME280;72008;48.140;11.614;2023-09-12T01:09:20;95188.34;;;21.90;58.98
82379;BME280;72008;48.140;11.614;2023-09-12T01:10:21;95174.44;;;21.90;60.33
82379;BME280;72008;48.140;11.614;2023-09-12T01:11:21;95178.06;;;21.87;59.82
82379;BME280;72008;48.140;11.614;2023-09-12T01:12:23;95180.47;;;21.85;60.20
82379;BME280;72008;48.140;11.614;2023-09-12T01:13:24;95180.41;;;21.88;59.22
82379;BME280;72008;48.140;11.614;2023-09-12T01:14:24;95179.63;;;21.88;59.87
82379;BME280;72008;48.140;11.614;2023-09-12T01:15:24;95180.41;;;21.88;59.35
82379;BME280;72008;48.140;11.614;2023-09-12T01:16:25;95183.19;;;21.88;60.15
82379;BME280;72008;48.140;11.614;2023-09-12T01:17:26;95174.06;;;21.88;59.62
82379;BME280;72008;48.140;11.614;2023-09-12T01:18:27;95175.28;;;21.87;59.48
82379;BME280;72008;48.140;11.614;2023-09-12T01:19:28;95182.47;;;21.84;59.68
82379;BME280;72008;48.140;11.614;2023-09-12T01:20:34;95182.09;;;21.82;59.46
82379;BME280;72008;48.140;11.614;2023-09-12T01:22:01;95180.59;;;21.77;60.85
82379;BME280;72008;48.140;11.614;2023-09-12T01:23:30;95185.19;;;21.64;60.69
82379;BME280;72008;48.140;11.614;2023-09-12T01:26:17;95178.06;;;21.63;60.46
82379;BME280;72008;48.140;11.614;2023-09-12T01:28:24;95179.63;;;21.64;59.86
82379;BME280;72008;48.140;11.614;2023-09-12T01:29:26;95182.03;;;21.62;60.68
82379;BME280;72008;48.140;11.614;2023-09-12T01:30:28;95174.81;;;21.65;60.38
82379;BME280;72008;48.140;11.614;2023-09-12T01:31:29;95178.84;;;21.64;60.00
82379;BME280;72008;48.140;11.614;2023-09-12T01:32:32;95187.25;;;21.60;60.71
82379;BME280;72008;48.140;11.614;2023-09-12T01:33:32;95183.25;;;21.61;59.84
82379;BME280;72008;48.140;11.614;2023-09-12T01:34:33;95178.44;;;21.65;60.37
82379;BME280;72008;48.140;11.614;2023-09-12T01:35:33;95181.22;;;21.65;59.34
82379;BME280;72008;48.140;11.614;2023-09-12T01:36:34;95179.38;;;21.55;60.84
82379;BME280;72008;48.140;11.614;2023-09-12T01:37:34;95179.00;;;21.53;59.46
82379;BME280;72008;48.140;11.614;2023-09-12T01:38:34;95177.81;;;21.54;59.35
82379;BME280;72008;48.140;11.614;2023-09-12T01:39:35;95173.00;;;21.54;60.59
82379;BME280;72008;48.140;11.614;2023-09-12T01:40:44;95169.06;;;21.52;60.13
82379;BME280;72008;48.140;11.614;2023-09-12T01:41:48;95170.63;;;21.53;59.82
82379;BME280;72008;48.140;11.614;2023-09-12T01:42:53;95171.47;;;21.50;60.04
82379;BME280;72008;48.140;11.614;2023-09-12T01:43:56;95177.06;;;21.50;60.41
82379;BME280;72008;48.140;11.614;2023-09-12T01:44:57;95175.94;;;21.44;61.14
82379;BME280;72008;48.140;11.614;2023-09-12T01:46:00;95174.78;;;21.41;60.33
82379;BME280;72008;48.140;11.614;2023-09-12T01:47:04;95179.97;;;21.43;60.51
82379;BME280;72008;48.140;11.614;2023-09-12T01:48:06;95177.63;;;21.38;61.18
82379;BME280;72008;48.140;11.614;2023-09-12T01:49:10;95183.97;;;21.42;60.34
82379;BME280;72008;48.140;11.614;2023-09-12T01:50:12;95181.63;;;21.37;61.00
82379;BME280;72008;48.140;11.614;2023-09-12T01:51:15;95187.59;;;21.35;60.93
82379;BME280;72008;48.140;11.614;2023-09-12T01:52:16;95189.22;;;21.32;61.28
82379;BME280;72008;48.140;11.614;2023-09-12T01:53:17;95187.66;;;21.31;61.62
82379;BME280;72008;48.140;11.614;2023-09-12T01:54:20;95192.00;;;21.32;61.58
82379;BME280;72008;48.140;11.614;2023-09-12T01:55:22;95193.66;;;21.30;61.32
82379;BME280;72008;48.140;11.614;2023-09-12T01:56:23;95190.94;;;21.23;61.20
82379;BME280;72008;48.140;11.614;2023-09-12T01:57:25;95190.88;;;21.26;60.98
82379;BME280;72008;48.140;11.614;2023-09-12T01:58:26;95196.06;;;21.28;60.46
82379;BME280;72008;48.140;11.614;2023-09-12T01:59:28;95193.22;;;21.31;60.48
82379;BME280;72008;48.140;11.614;2023-09-12T02:00:29;95197.28;;;21.27;61.15
82379;BME280;72008;48.140;11.614;2023-09-12T02:01:29;95196.91;;;21.25;61.27
82379;BME280;72008;48.140;11.614;2023-09-12T02:02:30;95191.38;;;21.21;60.66
82379;BME280;72008;48.140;11.614;2023-09-12T02:03:30;95193.41;;;21.17;62.37
82379;BME280;72008;48.140;11.614;2023-09-12T02:04:30;95190.69;;;21.13;62.29
82379;BME280;72008;48.140;11.614;2023-09-12T02:05:31;95195.09;;;21.11;61.95
82379;BME280;72008;48.140;11.614;2023-09-12T02:06:32;95193.09;;;21.11;62.01
82379;BME280;72008;48.140;11.614;2023-09-12T02:07:38;95197.47;;;21.12;61.26
82379;BME280;72008;48.140;11.614;2023-09-12T02:08:39;95193.47;;;21.13;61.94
82379;BME280;72008;48.140;11.614;2023-09-12T02:09:39;95202.97;;;21.16;61.65
82379;BME280;72008;48.140;11.614;2023-09-12T02:10:39;95202.13;;;21.19;61.97
82379;BME280;72008;48.140;11.614;2023-09-12T02:11:40;95203.31;;;21.22;61.44
82379;BME280;72008;48.140;11.614;2023-09-12T02:12:40;95204.72;;;21.03;60.25
82379;BME280;72008;48.140;11.614;2023-09-12T02:13:41;95200.75;;;21.04;61.01
82379;BME280;72008;48.140;11.614;2023-09-12T02:14:41;95198.06;;;20.97;60.70
82379;BME280;72008;48.140;11.614;2023-09-12T02:15:41;95205.22;;;20.98;61.16
82379;BME280;72008;48.140;11.614;2023-09-12T02:16:42;95204.38;;;21.01;60.78
82379;BME280;72008;48.140;11.614;2023-09-12T02:17:42;95206.69;;;21.06;60.37
82379;BME280;72008;48.140;11.614;2023-09-12T02:18:43;95207.00;;;21.11;60.87
82379;BME280;72008;48.140;11.614;2023-09-12T02:19:47;95200.31;;;21.09;60.52
82379;BME280;72008;48.140;11.614;2023-09-12T02:20:47;95203.63;;;20.97;60.22
82379;BME280;72008;48.140;11.614;2023-09-12T02:21:48;95199.22;;;20.99;61.67
82379;BME280;72008;48.140;11.614;2023-09-12T02:22:48;95198.44;;;20.99;60.86
82379;BME280;72008;48.140;11.614;2023-09-12T02:23:48;95199.66;;;20.98;61.59
82379;BME280;72008;48.140;11.614;2023-09-12T02:24:50;95204.06;;;20.95;61.99
82379;BME280;72008;48.140;11.614;2023-09-12T02:25:50;95202.09;;;20.92;61.60
82379;BME280;72008;48.140;11.614;2023-09-12T02:26:50;95194.66;;;20.85;62.10
82379;BME280;72008;48.140;11.614;2023-09-12T02:27:51;95198.09;;;20.93;60.24
82379;BME280;72008;48.140;11.614;2023-09-12T02:28:51;95199.28;;;20.96;60.65
82379;BME280;72008;48.140;11.614;2023-09-12T02:29:52;95204.09;;;20.92;61.25
82379;BME280;72008;48.140;11.614;2023-09-12T02:30:52;95197.72;;;20.95;61.76
82379;BME280;72008;48.140;11.614;2023-09-12T02:31:52;95199.28;;;20.96;61.74
82379;BME280;72008;48.140;11.614;2023-09-12T02:32:53;95202.06;;;20.96;61.29
82379;BME280;72008;48.140;11.614;2023-09-12T02:33:53;95199.28;;;20.96;60.77
82379;BME280;72008;48.140;11.614;2023-09-12T02:34:54;95204.13;;;20.88;61.02
82379;BME280;72008;48.140;11.614;2023-09-12T02:35:54;95207.78;;;20.81;62.14
82379;BME280;72008;48.140;11.614;2023-09-12T02:36:54;95204.63;;;20.79;61.23
82379;BME280;72008;48.140;11.614;2023-09-12T02:37:55;95205.78;;;20.82;61.66
82379;BME280;72008;48.140;11.614;2023-09-12T02:38:55;95205.00;;;20.81;62.35
82379;BME280;72008;48.140;11.614;2023-09-12T02:39:56;95209.06;;;20.77;61.24
82379;BME280;72008;48.140;11.614;2023-09-12T02:40:56;95208.19;;;20.83;62.34
82379;BME280;72008;48.140;11.614;2023-09-12T02:41:56;95201.34;;;20.88;61.64
82379;BME280;72008;48.140;11.614;2023-09-12T02:42:57;95202.50;;;20.90;61.97
82379;BME280;72008;48.140;11.614;2023-09-12T02:43:57;95206.50;;;20.89;61.10
82379;BME280;72008;48.140;11.614;2023-09-12T02:44:58;95209.34;;;20.86;61.96
82379;BME280;72008;48.140;11.614;2023-09-12T02:45:58;95209.75;;;20.84;61.53
82379;BME280;72008;48.140;11.614;2023-09-12T02:46:58;95210.16;;;20.83;60.68
82379;BME280;72008;48.140;11.614;2023-09-12T02:47:59;95212.16;;;20.82;62.00
82379;BME280;72008;48.140;11.614;2023-09-12T02:48:59;95210.56;;;20.81;62.43
82379;BME280;72008;48.140;11.614;2023-09-12T02:50:00;95208.22;;;20.80;61.21
82379;BME280;72008;48.140;11.614;2023-09-12T02:51:00;95209.47;;;20.75;61.87
82379;BME280;72008;48.140;11.614;2023-09-12T02:52:00;95205.00;;;20.81;61.58
82379;BME280;72008;48.140;11.614;2023-09-12T02:53:01;95201.44;;;20.81;61.88
82379;BME280;72008;48.140;11.614;2023-09-12T02:54:01;95201.50;;;20.77;61.86
82379;BME280;72008;48.140;11.614;2023-09-12T02:55:02;95200.66;;;20.80;61.63
82379;BME280;72008;48.140;11.614;2023-09-12T02:56:02;95209.00;;;20.80;61.26
82379;BME280;72008;48.140;11.614;2023-09-12T02:57:03;95205.16;;;20.71;61.31
82379;BME280;72008;48.140;11.614;2023-09-12T02:58:03;95204.34;;;20.70;61.28
82379;BME280;72008;48.140;11.614;2023-09-12T02:59:04;95203.22;;;20.67;61.97
82379;BME280;72008;48.140;11.614;2023-09-12T03:00:05;95197.94;;;20.73;62.23
82379;BME280;72008;48.140;11.614;2023-09-12T03:01:05;95206.78;;;20.68;62.41
82379;BME280;72008;48.140;11.614;2023-09-12T03:02:06;95207.50;;;20.72;62.09
82379;BME280;72008;48.140;11.614;2023-09-12T03:03:07;95201.94;;;20.72;62.61
82379;BME280;72008;48.140;11.614;2023-09-12T03:04:07;95206.00;;;20.67;61.49
82379;BME280;72008;48.140;11.614;2023-09-12T03:05:08;95204.50;;;20.59;62.83
82379;BME280;72008;48.140;11.614;2023-09-12T03:06:08;95202.06;;;20.61;62.54
82379;BME280;72008;48.140;11.614;2023-09-12T03:07:08;95204.00;;;20.68;61.84
82379;BME280;72008;48.140;11.614;2023-09-12T03:08:09;95205.94;;;20.71;61.63
82379;BME280;72008;48.140;11.614;2023-09-12T03:09:09;95198.38;;;20.72;62.19
82379;BME280;72008;48.140;11.614;2023-09-12T03:10:10;95206.31;;;20.73;61.71
82379;BME280;72008;48.140;11.614;2023-09-12T03:11:10;95204.00;;;20.68;62.23
82379;BME280;72008;48.140;11.614;2023-09-12T03:12:11;95210.78;;;20.63;61.58
82379;BME280;72008;48.140;11.614;2023-09-12T03:13:11;95208.38;;;20.65;61.34
82379;BME280;72008;48.140;11.614;2023-09-12T03:14:12;95211.56;;;20.64;61.71
82379;BME280;72008;48.140;11.614;2023-09-12T03:15:12;95207.63;;;20.61;62.45
82379;BME280;72008;48.140;11.614;2023-09-12T03:16:14;95206.78;;;20.64;61.71
82379;BME280;72008;48.140;11.614;2023-09-12T03:17:15;95210.06;;;20.59;63.00
82379;BME280;72008;48.140;11.614;2023-09-12T03:18:15;95202.13;;;20.58;62.02
82379;BME280;72008;48.140;11.614;2023-09-12T03:19:15;95211.66;;;20.57;62.54
82379;BME280;72008;48.140;11.614;2023-09-12T03:20:16;95206.94;;;20.54;62.35
82379;BME280;72008;48.140;11.614;2023-09-12T03:21:16;95208.13;;;20.53;62.56
82379;BME280;72008;48.140;11.614;2023-09-12T03:22:17;95202.19;;;20.51;62.38
82379;BME280;72008;48.140;11.614;2023-09-12T03:23:19;95203.31;;;20.57;61.98
82379;BME280;72008;48.140;11.614;2023-09-12T03:24:19;95198.16;;;20.59;63.13
82379;BME280;72008;48.140;11.614;2023-09-12T03:25:20;95198.94;;;20.59;62.79
82379;BME280;72008;48.140;11.614;2023-09-12T03:26:20;95200.53;;;20.57;62.74
82379;BME280;72008;48.140;11.614;2023-09-12T03:27:21;95198.16;;;20.55;62.61
82379;BME280;72008;48.140;11.614;2023-09-12T03:28:21;95195.78;;;20.57;62.05
82379;BME280;72008;48.140;11.614;2023-09-12T03:29:22;95205.31;;;20.56;63.33
82379;BME280;72008;48.140;11.614;2023-09-12T03:30:22;95202.16;;;20.54;61.96
82379;BME280;72008;48.140;11.614;2023-09-12T03:31:22;95202.19;;;20.51;63.60
82379;BME280;72008;48.140;11.614;2023-09-12T03:32:23;95199.78;;;20.49;62.22
82379;BME280;72008;48.140;11.614;2023-09-12T03:33:23;95197.84;;;20.46;62.51
82379;BME280;72008;48.140;11.614;2023-09-12T03:34:24;95199.00;;;20.49;62.65
82379;BME280;72008;48.140;11.614;2023-09-12T03:35:25;95200.22;;;20.48;62.27
82379;BME280;72008;48.140;11.614;2023-09-12T03:36:25;95200.63;;;20.46;62.40
82379;BME280;72008;48.140;11.614;2023-09-12T03:37:26;95203.06;;;20.44;63.07
82379;BME280;72008;48.140;11.614;2023-09-12T03:38:26;95196.69;;;20.43;63.31
82379;BME280;72008;48.140;11.614;2023-09-12T03:39:26;95195.91;;;20.43;62.91
82379;BME280;72008;48.140;11.614;2023-09-12T03:40:31;95196.69;;;20.43;63.50
82379;BME280;72008;48.140;11.614;2023-09-12T03:41:31;95195.50;;;20.44;63.04
82379;BME280;72008;48.140;11.614;2023-09-12T03:42:32;95192.72;;;20.44;63.61
82379;BME280;72008;48.140;11.614;2023-09-12T03:43:33;95203.06;;;20.40;62.51
82379;BME280;72008;48.140;11.614;2023-09-12T03:44:34;95199.13;;;20.38;63.39
82379;BME280;72008;48.140;11.614;2023-09-12T03:45:34;95193.19;;;20.36;63.44
82379;BME280;72008;48.140;11.614;2023-09-12T03:46:34;95197.16;;;20.35;63.54
82379;BME280;72008;48.140;11.614;2023-09-12T03:47:35;95200.34;;;20.37;63.60
82379;BME280;72008;48.140;11.614;2023-09-12T03:48:35;95203.06;;;20.40;62.63
82379;BME280;72008;48.140;11.614;2023-09-12T03:49:36;95199.88;;;20.42;62.56
82379;BME280;72008;48.140;11.614;2023-09-12T03:50:36;95200.66;;;20.42;63.82
82379;BME280;72008;48.140;11.614;2023-09-12T03:51:36;95198.31;;;20.41;63.73
82379;BME280;72008;48.140;11.614;2023-09-12T03:52:37;95209.06;;;20.39;62.90
82379;BME280;72008;48.140;11.614;2023-09-12T03:53:37;95206.69;;;20.37;62.37
82379;BME280;72008;48.140;11.614;2023-09-12T03:54:38;95207.19;;;20.25;62.58
82379;BME280;72008;48.140;11.614;2023-09-12T03:55:38;95206.38;;;20.28;63.17
82379;BME280;72008;48.140;11.614;2023-09-12T03:56:38;95201.94;;;20.34;62.31
82379;BME280;72008;48.140;11.614;2023-09-12T03:57:39;95211.06;;;20.35;63.25
82379;BME280;72008;48.140;11.614;2023-09-12T03:58:39;95203.94;;;20.34;63.85
82379;BME280;72008;48.140;11.614;2023-09-12T03:59:40;95199.63;;;20.29;63.21
82379;BME280;72008;48.140;11.614;2023-09-12T04:00:40;95200.47;;;20.26;63.77
82379;BME280;72008;48.140;11.614;2023-09-12T04:01:40;95203.25;;;20.26;62.90
82379;BME280;72008;48.140;11.614;2023-09-12T04:02:41;95205.19;;;20.29;63.53
82379;BME280;72008;48.140;11.614;2023-09-12T04:03:41;95202.38;;;20.33;62.68
82379;BME280;72008;48.140;11.614;2023-09-12T04:04:42;95200.81;;;20.28;62.40
82379;BME280;72008;48.140;11.614;2023-09-12T04:05:42;95199.31;;;20.20;63.70
82379;BME280;72008;48.140;11.614;2023-09-12T04:06:42;95205.25;;;20.22;62.46
82379;BME280;72008;48.140;11.614;2023-09-12T04:07:43;95208.03;;;20.22;63.37
82379;BME280;72008;48.140;11.614;2023-09-12T04:08:43;95203.25;;;20.22;62.89
82379;BME280;72008;48.140;11.614;2023-09-12T04:09:44;95208.25;;;20.00;63.08
82379;BME280;72008;48.140;11.614;2023-09-12T04:10:44;95204.28;;;19.98;63.37
82379;BME280;72008;48.140;11.614;2023-09-12T04:11:45;95205.81;;;20.06;63.05
82379;BME280;72008;48.140;11.614;2023-09-12T04:12:45;95199.00;;;20.14;63.47
82379;BME280;72008;48.140;11.614;2023-09-12T04:13:46;95200.22;;;20.10;63.28
82379;BME280;72008;48.140;11.614;2023-09-12T04:14:49;95201.03;;;20.07;63.65
82379;BME280;72008;48.140;11.614;2023-09-12T04:15:50;95197.81;;;20.12;64.20
82379;BME280;72008;48.140;11.614;2023-09-12T04:16:50;95198.59;;;20.12;64.24
82379;BME280;72008;48.140;11.614;2023-09-12T04:17:50;95195.41;;;20.14;62.99
82379;BME280;72008;48.140;11.614;2023-09-12T04:18:51;95211.75;;;20.05;64.10
82379;BME280;72008;48.140;11.614;2023-09-12T04:19:51;95209.00;;;20.05;63.05
82379;BME280;72008;48.140;11.614;2023-09-12T04:20:52;95207.34;;;20.11;63.12
82379;BME280;72008;48.140;11.614;2023-09-12T04:21:52;95207.38;;;20.07;63.34
82379;BME280;72008;48.140;11.614;2023-09-12T04:22:52;95210.94;;;20.08;62.58
82379;BME280;72008;48.140;11.614;2023-09-12T04:23:53;95212.16;;;20.07;63.00
82379;BME280;72008;48.140;11.614;2023-09-12T04:24:53;95214.94;;;20.07;62.83
82379;BME280;72008;48.140;11.614;2023-09-12T04:25:54;95209.75;;;20.09;63.90
82379;BME280;72008;48.140;11.614;2023-09-12T04:26:54;95205.81;;;20.06;62.97
82379;BME280;72008;48.140;11.614;2023-09-12T04:27:55;95215.00;;;19.99;64.12
82379;BME280;72008;48.140;11.614;2023-09-12T04:28:55;95212.19;;;20.03;63.12
82379;BME280;72008;48.140;11.614;2023-09-12T04:29:55;95204.41;;;19.84;62.63
82379;BME280;72008;48.140;11.614;2023-09-12T04:31:05;95206.75;;;19.89;63.62
82379;BME280;72008;48.140;11.614;2023-09-12T04:32:05;95211.41;;;19.99;64.06
82379;BME280;72008;48.140;11.614;2023-09-12T04:33:06;95211.53;;;19.88;63.26
82379;BME280;72008;48.140;11.614;2023-09-12T04:34:06;95208.31;;;19.90;62.87
82379;BME280;72008;48.140;11.614;2023-09-12T04:35:07;95216.63;;;19.97;63.36
82379;BME280;72008;48.140;11.614;2023-09-12T04:36:07;95207.50;;;19.93;63.39
82379;BME280;72008;48.140;11.614;2023-09-12T04:37:08;95211.50;;;19.92;63.13
82379;BME280;72008;48.140;11.614;2023-09-12T04:38:08;95220.19;;;19.97;63.62
82379;BME280;72008;48.140;11.614;2023-09-12T04:39:08;95210.63;;;19.98;64.02
82379;BME280;72008;48.140;11.614;2023-09-12T04:40:09;95214.19;;;20.03;64.38
82379;BME280;72008;48.140;11.614;2023-09-12T04:41:12;95209.06;;;19.97;62.99
82379;BME280;72008;48.140;11.614;2023-09-12T04:42:12;95214.59;;;20.01;63.95
82379;BME280;72008;48.140;11.614;2023-09-12T04:43:13;95214.19;;;20.03;63.07
82379;BME280;72008;48.140;11.614;2023-09-12T04:44:13;95215.78;;;20.00;63.40
82379;BME280;72008;48.140;11.614;2023-09-12T04:45:14;95205.59;;;19.86;62.67
82379;BME280;72008;48.140;11.614;2023-09-12T04:46:14;95206.47;;;19.76;63.34
82379;BME280;72008;48.140;11.614;2023-09-12T04:47:14;95209.25;;;19.76;64.40
82379;BME280;72008;48.140;11.614;2023-09-12T04:48:15;95206.44;;;19.80;63.14
82379;BME280;72008;48.140;11.614;2023-09-12T04:49:15;95208.09;;;19.73;63.36
82379;BME280;72008;48.140;11.614;2023-09-12T04:50:16;95207.66;;;19.75;64.17
82379;BME280;72008;48.140;11.614;2023-09-12T04:51:18;95214.00;;;19.79;63.30
82379;BME280;72008;48.140;11.614;2023-09-12T04:52:19;95208.09;;;19.73;64.53
82379;BME280;72008;48.140;11.614;2023-09-12T04:53:19;95204.44;;;19.80;64.21
82379;BME280;72008;48.140;11.614;2023-09-12T04:54:20;95212.34;;;19.82;64.20
82379;BME280;72008;48.140;11.614;2023-09-12T04:55:20;95215.94;;;19.82;64.54
82379;BME280;72008;48.140;11.614;2023-09-12T04:56:21;95208.41;;;19.83;64.12
82379;BME280;72008;48.140;11.614;2023-09-12T04:57:21;95211.94;;;19.87;64.32
82379;BME280;72008;48.140;11.614;2023-09-12T04:58:22;95205.59;;;19.86;64.27
82379;BME280;72008;48.140;11.614;2023-09-12T04:59:22;95205.59;;;19.86;63.99
82379;BME280;72008;48.140;11.614;2023-09-12T05:00:23;95208.00;;;19.81;64.41
82379;BME280;72008;48.140;11.614;2023-09-12T05:01:23;95211.56;;;19.85;63.75
82379;BME280;72008;48.140;11.614;2023-09-12T05:02:24;95210.72;;;19.91;63.18
82379;BME280;72008;48.140;11.614;2023-09-12T05:03:25;95210.31;;;19.89;64.12
82379;BME280;72008;48.140;11.614;2023-09-12T05:04:25;95212.31;;;19.89;63.46
82379;BME280;72008;48.140;11.614;2023-09-12T05:05:25;95217.88;;;19.89;64.49
82379;BME280;72008;48.140;11.614;2023-09-12T05:06:26;95217.88;;;19.89;64.13
82379;BME280;72008;48.140;11.614;2023-09-12T05:07:26;95215.50;;;19.87;63.96
82379;BME280;72008;48.140;11.614;2023-09-12T05:08:27;95219.03;;;19.91;64.03
82379;BME280;72008;48.140;11.614;2023-09-12T05:09:27;95215.84;;;19.93;63.99
82379;BME280;72008;48.140;11.614;2023-09-12T05:10:27;95217.00;;;19.95;63.26
82379;BME280;72008;48.140;11.614;2023-09-12T05:11:28;95219.78;;;19.95;64.10
82379;BME280;72008;48.140;11.614;2023-09-12T05:12:28;95217.84;;;19.92;63.45
82379;BME280;72008;48.140;11.614;2023-09-12T05:13:29;95223.00;;;19.94;62.95
82379;BME280;72008;48.140;11.614;2023-09-12T05:14:30;95223.38;;;19.92;64.42
82379;BME280;72008;48.140;11.614;2023-09-12T05:15:30;95220.22;;;19.90;62.45
82379;BME280;72008;48.140;11.614;2023-09-12T05:16:31;95213.88;;;19.90;62.91
82379;BME280;72008;48.140;11.614;2023-09-12T05:17:31;95221.03;;;19.87;63.21
82379;BME280;72008;48.140;11.614;2023-09-12T05:18:32;95221.03;;;19.91;63.19
82379;BME280;72008;48.140;11.614;2023-09-12T05:19:32;95220.22;;;19.90;64.55
82379;BME280;72008;48.140;11.614;2023-09-12T05:20:33;95225.78;;;19.90;63.13
82379;BME280;72008;48.140;11.614;2023-09-12T05:21:34;95218.66;;;19.89;64.08